This is the latest recevied weather packets stored in our database for station/object N9DMT-13. If no packets are shown the sender has not sent any weather packets the latest 10 day(s).
| Time | Temp. | Humidity | Pressure | Rain* | Wind** | Luminosity | Snow |
|---|---|---|---|---|---|---|---|
| 1778194606 | 16.11° C | 32% | 977.4 hPa | 0 mm | - | - | - |
| 1778194305 | 15.56° C | 31% | 977.6 hPa | 0 mm | - | - | - |
| 1778194004 | 16.11° C | 30% | 977.6 hPa | 0 mm | - | - | - |
| 1778193703 | 16.67° C | 29% | 977.5 hPa | 0 mm | - | - | - |
| 1778193403 | 16.67° C | 31% | 977.4 hPa | 0 mm | - | - | - |
| 1778193102 | 16.67° C | 31% | 977.6 hPa | 0 mm | - | - | - |
| 1778192801 | 16.67° C | 30% | 977.6 hPa | 0 mm | - | - | - |
| 1778192500 | 16.67° C | 30% | 977.5 hPa | 0 mm | - | - | - |
| 1778192199 | 16.67° C | 31% | 977.5 hPa | 0 mm | - | - | - |
| 1778191899 | 16.67° C | 31% | 977.4 hPa | 0 mm | - | - | - |
| 1778191597 | 16.67° C | 31% | 977.6 hPa | 0 mm | - | - | - |
| 1778191297 | 16.11° C | 32% | 977.4 hPa | 0 mm | - | - | - |
| 1778190995 | 16.67° C | 29% | 977.4 hPa | 0 mm | - | - | - |
| 1778190695 | 16.11° C | 33% | 977.3 hPa | 0 mm | - | - | - |
| 1778190393 | 16.67° C | 30% | 977.6 hPa | 0 mm | - | - | - |
| 1778190092 | 16.11° C | 35% | 977.4 hPa | 0 mm | - | - | - |
| 1778189791 | 16.67° C | 33% | 977.3 hPa | 0 mm | - | - | - |
| 1778189490 | 17.78° C | 30% | 977.4 hPa | 0 mm | - | - | - |
| 1778189189 | 17.22° C | 32% | 977.3 hPa | 0 mm | - | - | - |
| 1778188888 | 16.11° C | 33% | 977.5 hPa | 0 mm | - | - | - |
| 1778188587 | 15.56° C | 33% | 977.5 hPa | 0 mm | - | - | - |
| 1778188286 | 16.67° C | 32% | 977.6 hPa | 0 mm | - | - | - |
| 1778187985 | 16.67° C | 33% | 977.4 hPa | 0 mm | - | - | - |
| 1778187684 | 16.67° C | 33% | 977.5 hPa | 0 mm | - | - | - |
| 1778187384 | 16.11° C | 38% | 977.5 hPa | 0 mm | - | - | - |
* Rain latest hour (hover to see other rain measurements)
** Current wind speed in m/s (hover to see current wind gust speed)